createdAt,value
2019-02-11T00:10:44.750Z,43.80
2019-02-11T00:13:14.506Z,39.73
2019-02-11T00:15:44.165Z,40.13
2019-02-11T00:18:13.855Z,40.63
2019-02-11T00:20:43.530Z,40.03
2019-02-11T00:23:19.066Z,40.23
2019-02-11T00:25:49.940Z,42.13
2019-02-11T00:28:21.321Z,40.47
2019-02-11T00:30:51.000Z,40.23
2019-02-11T00:33:20.693Z,42.13
2019-02-11T00:35:50.359Z,44.17
2019-02-11T00:38:20.003Z,46.00
2019-02-11T00:40:49.714Z,45.40
2019-02-11T00:43:20.758Z,43.67
2019-02-11T00:45:50.493Z,47.27
2019-02-11T00:48:23.926Z,45.57
2019-02-11T00:50:53.578Z,48.67
2019-02-11T00:53:23.236Z,45.33
2019-02-11T00:55:52.921Z,47.43
2019-02-11T00:58:24.058Z,45.67
2019-02-11T01:00:56.544Z,44.27
2019-02-11T01:03:26.225Z,43.67
2019-02-11T01:05:56.015Z,46.20
2019-02-11T01:08:25.788Z,45.50
2019-02-11T01:10:55.472Z,47.50
2019-02-11T01:13:27.808Z,47.33
2019-02-11T01:15:58.610Z,43.20
2019-02-11T01:18:28.282Z,44.50
2019-02-11T01:20:59.809Z,43.27
2019-02-11T01:23:29.503Z,46.40
2019-02-11T01:25:59.300Z,43.77
2019-02-11T01:28:29.026Z,43.13
2019-02-11T01:30:58.767Z,47.77
2019-02-11T01:33:28.434Z,45.63
2019-02-11T01:35:59.568Z,46.00
2019-02-11T01:38:30.144Z,43.83
2019-02-11T01:41:01.823Z,45.70
2019-02-11T01:43:36.122Z,46.23
2019-02-11T01:46:02.926Z,47.37
2019-02-11T01:48:32.609Z,44.03
2019-02-11T01:51:03.830Z,45.90
2019-02-11T01:53:35.240Z,48.50
2019-02-11T01:56:05.046Z,45.93
2019-02-11T01:58:34.722Z,45.43
2019-02-11T02:01:05.705Z,48.00
2019-02-11T02:03:35.380Z,45.10
2019-02-11T02:06:07.505Z,45.10
2019-02-11T02:08:37.310Z,43.47
2019-02-11T02:11:06.967Z,43.63
2019-02-11T02:13:44.456Z,43.70
2019-02-11T02:16:11.212Z,43.03
2019-02-11T02:18:41.971Z,44.13
2019-02-11T02:21:11.701Z,46.07
2019-02-11T02:23:41.436Z,45.30
2019-02-11T02:26:11.190Z,43.23
2019-02-11T02:28:40.855Z,45.30
2019-02-11T02:31:10.556Z,42.13
2019-02-11T02:33:41.812Z,44.27
2019-02-11T02:36:11.479Z,42.20
2019-02-11T02:38:41.840Z,42.77
2019-02-11T02:41:12.520Z,43.00
2019-02-11T02:43:42.166Z,41.13
2019-02-11T02:46:11.904Z,43.00
2019-02-11T02:48:41.552Z,43.67
2019-02-11T02:51:12.490Z,39.93
2019-02-11T02:53:43.344Z,41.07
2019-02-11T02:56:12.977Z,39.53
2019-02-11T02:58:42.784Z,40.47
2019-02-11T03:01:12.578Z,41.93
2019-02-11T03:03:43.692Z,40.37
2019-02-11T03:06:13.354Z,40.03
2019-02-11T03:08:43.052Z,40.97
2019-02-11T03:11:12.698Z,40.40
2019-02-11T03:13:42.479Z,40.80
2019-02-11T03:16:13.790Z,41.97
2019-02-11T03:18:43.460Z,39.70
2019-02-11T03:21:13.349Z,42.60
2019-02-11T03:23:43.016Z,39.90
2019-02-11T03:26:14.225Z,45.37
2019-02-11T03:28:45.555Z,40.00
2019-02-11T03:31:15.271Z,39.47
2019-02-11T03:33:44.994Z,40.27
2019-02-11T03:36:14.648Z,39.50
2019-02-11T03:38:44.345Z,40.07
2019-02-11T03:41:15.377Z,39.67
2019-02-11T03:43:46.208Z,39.33
2019-02-11T03:46:15.892Z,40.30
2019-02-11T03:48:47.232Z,39.60
2019-02-11T03:51:16.957Z,39.30
2019-02-11T03:53:46.649Z,42.27
2019-02-11T03:56:16.878Z,40.10
2019-02-11T03:58:46.543Z,39.87
2019-02-11T04:01:17.011Z,40.80
2019-02-11T04:03:46.883Z,39.27
2019-02-11T04:06:16.532Z,40.67
2019-02-11T04:08:46.331Z,39.77
2019-02-11T04:11:16.004Z,39.53
2019-02-11T04:13:45.715Z,39.87
2019-02-11T04:16:15.440Z,42.30
2019-02-11T04:18:45.101Z,39.00
2019-02-11T04:21:15.575Z,39.33
2019-02-11T04:23:45.268Z,39.77
2019-02-11T04:26:15.001Z,38.93
2019-02-11T04:28:45.896Z,41.87
2019-02-11T04:31:15.593Z,39.33
2019-02-11T04:33:45.249Z,40.63
2019-02-11T04:36:14.931Z,39.23
2019-02-11T04:38:44.650Z,39.70
2019-02-11T04:41:14.303Z,39.73
2019-02-11T04:43:43.982Z,38.90
2019-02-11T04:46:14.850Z,39.23
2019-02-11T04:48:44.589Z,39.73
2019-02-11T04:51:14.254Z,40.67
2019-02-11T04:53:44.711Z,39.10
2019-02-11T04:56:14.438Z,39.93
2019-02-11T04:58:44.476Z,39.83
2019-02-11T05:01:14.254Z,41.07
2019-02-11T05:03:43.994Z,42.50
2019-02-11T05:06:16.438Z,39.87
2019-02-11T05:08:46.448Z,39.57
2019-02-11T05:11:16.110Z,40.57
2019-02-11T05:13:47.133Z,39.90
2019-02-11T05:16:18.051Z,39.37
2019-02-11T05:18:47.692Z,41.70
2019-02-11T05:21:17.351Z,40.03
2019-02-11T05:23:47.834Z,40.10
2019-02-11T05:26:17.667Z,39.67
2019-02-11T05:28:47.319Z,41.30
2019-02-11T05:31:18.741Z,39.33
2019-02-11T05:33:48.412Z,39.67
2019-02-11T05:36:18.141Z,40.43
2019-02-11T05:38:47.898Z,39.53
2019-02-11T05:41:18.371Z,39.93
2019-02-11T05:43:48.154Z,40.47
2019-02-11T05:46:18.217Z,40.27
2019-02-11T05:48:49.970Z,41.10
2019-02-11T05:51:19.641Z,41.10
2019-02-11T05:53:49.345Z,43.60
2019-02-11T05:56:19.099Z,42.73
2019-02-11T05:58:49.028Z,42.00
2019-02-11T06:01:20.209Z,41.30
2019-02-11T06:03:49.942Z,43.20
2019-02-11T06:06:24.803Z,41.60
2019-02-11T06:08:56.815Z,46.83
2019-02-11T06:11:26.555Z,43.30
2019-02-11T06:13:57.321Z,42.90
2019-02-11T06:16:28.400Z,41.87
2019-02-11T06:18:58.129Z,41.47
2019-02-11T06:21:27.794Z,42.90
2019-02-11T06:23:57.484Z,41.57
2019-02-11T06:26:27.155Z,42.63
2019-02-11T06:28:56.825Z,43.80
2019-02-11T06:31:26.500Z,42.33
2019-02-11T06:33:57.588Z,42.77
2019-02-11T06:36:28.182Z,41.83
2019-02-11T06:38:57.951Z,44.23
2019-02-11T06:41:27.669Z,43.37
2019-02-11T06:43:57.793Z,42.13
2019-02-11T06:46:29.202Z,41.70
2019-02-11T06:48:58.870Z,43.97
2019-02-11T06:51:28.624Z,41.93
2019-02-11T06:53:59.778Z,44.80
2019-02-11T06:56:29.503Z,41.07
2019-02-11T06:58:59.182Z,41.80
2019-02-11T07:01:28.896Z,42.87
2019-02-11T07:03:58.588Z,41.83
2019-02-11T07:06:28.252Z,43.67
2019-02-11T07:08:58.055Z,42.57
2019-02-11T07:11:29.778Z,42.20
2019-02-11T07:14:00.312Z,42.53
2019-02-11T07:16:30.063Z,42.33
2019-02-11T07:18:59.745Z,45.27
2019-02-11T07:21:29.477Z,44.83
2019-02-11T07:23:59.282Z,45.93
2019-02-11T07:26:28.928Z,41.60
2019-02-11T07:28:59.597Z,43.43
2019-02-11T07:31:29.278Z,45.77
2019-02-11T07:33:58.946Z,49.63
2019-02-11T07:36:28.591Z,48.27
2019-02-11T07:38:59.504Z,48.63
2019-02-11T07:41:30.816Z,47.20
2019-02-11T07:44:02.108Z,44.97
2019-02-11T07:46:33.447Z,44.27
2019-02-11T07:49:03.118Z,44.23
2019-02-11T07:51:32.787Z,43.40
2019-02-11T07:54:02.470Z,42.80
2019-02-11T07:56:32.128Z,43.37
2019-02-11T07:59:21.154Z,44.60
2019-02-11T08:01:50.811Z,45.17
2019-02-11T08:04:20.480Z,43.37
2019-02-11T08:06:50.289Z,48.07
2019-02-11T08:09:20.030Z,43.77
2019-02-11T08:11:49.688Z,42.73
2019-02-11T08:14:20.733Z,42.67
2019-02-11T08:16:51.705Z,43.47
2019-02-11T08:19:21.368Z,45.70
2019-02-11T08:21:53.398Z,45.63
2019-02-11T08:24:23.068Z,44.30
2019-02-11T08:26:52.741Z,42.87
2019-02-11T08:29:24.086Z,44.63
2019-02-11T08:31:53.750Z,42.10
2019-02-11T08:34:24.887Z,46.37
2019-02-11T08:36:54.578Z,46.00
2019-02-11T08:39:28.603Z,44.40
2019-02-11T08:41:58.387Z,43.40
2019-02-11T08:44:28.146Z,43.37
2019-02-11T08:46:57.818Z,47.93
2019-02-11T08:49:27.571Z,48.70
2019-02-11T08:51:57.234Z,44.20
2019-02-11T08:54:28.383Z,45.77
2019-02-11T08:56:58.114Z,43.33
2019-02-11T08:59:27.810Z,47.20
2019-02-11T09:01:58.527Z,43.00
2019-02-11T09:04:31.286Z,46.63
2019-02-11T09:07:00.934Z,46.67
2019-02-11T09:09:30.618Z,48.37
2019-02-11T09:12:06.035Z,45.07
2019-02-11T09:14:35.714Z,43.80
2019-02-11T09:17:10.362Z,46.30
2019-02-11T09:19:36.861Z,45.97
2019-02-11T09:22:08.223Z,44.77
2019-02-11T09:24:38.348Z,47.40
2019-02-11T09:27:08.045Z,45.33
2019-02-11T09:29:37.790Z,46.60
2019-02-11T09:32:07.463Z,44.97
2019-02-11T09:34:37.174Z,46.67
2019-02-11T09:37:06.920Z,46.77
2019-02-11T09:39:36.609Z,45.83
2019-02-11T09:42:06.300Z,44.77
2019-02-11T09:44:37.103Z,45.07
2019-02-11T09:47:06.859Z,46.13
2019-02-11T09:49:36.757Z,47.40
2019-02-11T09:52:07.082Z,45.03
2019-02-11T09:54:36.896Z,46.50
2019-02-11T09:57:07.059Z,45.83
2019-02-11T09:59:36.810Z,45.47
2019-02-11T10:02:07.318Z,45.83
2019-02-11T10:04:37.023Z,46.80
2019-02-11T10:07:06.696Z,43.40
2019-02-11T10:09:36.355Z,47.83
2019-02-11T10:12:06.052Z,45.53
2019-02-11T10:14:35.710Z,46.90
2019-02-11T10:17:05.846Z,43.73
2019-02-11T10:19:35.546Z,46.63
2019-02-11T10:22:05.210Z,45.33
2019-02-11T10:24:34.969Z,45.00
2019-02-11T10:27:07.142Z,44.40
2019-02-11T10:29:36.821Z,47.57
2019-02-11T10:32:06.576Z,46.83
2019-02-11T10:34:36.355Z,45.93
2019-02-11T10:37:06.074Z,45.03
2019-02-11T10:39:37.270Z,47.27
2019-02-11T10:42:06.968Z,46.27
2019-02-11T10:44:36.650Z,47.47
2019-02-11T10:47:07.998Z,46.77
2019-02-11T10:49:37.706Z,46.07
2019-02-11T10:52:07.375Z,48.37
2019-02-11T10:54:37.035Z,45.33
2019-02-11T10:57:06.736Z,45.93
2019-02-11T10:59:36.427Z,49.37
2019-02-11T11:02:07.675Z,45.93
2019-02-11T11:04:37.849Z,46.27
2019-02-11T11:07:07.515Z,46.23
2019-02-11T11:09:37.230Z,50.17
2019-02-11T11:12:07.372Z,48.27
2019-02-11T11:14:37.051Z,47.37
2019-02-11T11:17:08.498Z,44.73
2019-02-11T11:19:38.212Z,45.77
2019-02-11T11:22:13.616Z,46.07
2019-02-11T11:24:43.362Z,44.57
2019-02-11T11:27:15.877Z,46.00
2019-02-11T11:29:45.569Z,46.03
2019-02-11T11:32:15.747Z,45.13
2019-02-11T11:34:46.582Z,45.80
2019-02-11T11:37:18.621Z,46.83
2019-02-11T11:39:56.798Z,46.50
2019-02-11T11:42:26.524Z,46.93
2019-02-11T11:44:56.188Z,46.53
2019-02-11T11:47:25.848Z,47.97
2019-02-11T11:49:55.551Z,46.30
2019-02-11T11:52:25.248Z,48.33
2019-02-11T11:54:55.041Z,46.83
2019-02-11T11:57:26.135Z,47.60
2019-02-11T11:59:56.206Z,48.90
2019-02-11T12:02:25.955Z,47.67
2019-02-11T12:04:55.909Z,49.70
2019-02-11T12:07:25.850Z,46.43
2019-02-11T12:09:58.631Z,47.57
2019-02-11T12:12:28.342Z,47.87
2019-02-11T12:14:59.064Z,47.73
2019-02-11T12:17:28.786Z,49.97
2019-02-11T12:19:58.602Z,48.13
2019-02-11T12:22:28.290Z,46.03
2019-02-11T12:25:01.500Z,50.20
2019-02-11T12:27:31.317Z,49.20
2019-02-11T12:30:02.460Z,47.47
2019-02-11T12:32:32.146Z,48.83
2019-02-11T12:35:01.850Z,47.57
2019-02-11T12:37:31.549Z,47.73
2019-02-11T12:40:01.211Z,47.47
2019-02-11T12:42:30.925Z,49.77
2019-02-11T12:45:00.645Z,50.03
2019-02-11T12:47:30.413Z,49.90
2019-02-11T12:50:00.302Z,47.57
2019-02-11T12:52:30.121Z,47.83
2019-02-11T12:55:01.498Z,49.93
2019-02-11T12:57:31.203Z,50.37
2019-02-11T13:00:01.312Z,49.20
2019-02-11T13:02:31.877Z,50.90
2019-02-11T13:05:02.895Z,49.00
2019-02-11T13:07:34.365Z,50.03
2019-02-11T13:10:06.907Z,48.60
2019-02-11T13:12:36.618Z,49.00
2019-02-11T13:15:11.093Z,50.07
2019-02-11T13:17:41.340Z,47.63
2019-02-11T13:20:14.342Z,47.57
2019-02-11T13:22:44.073Z,48.60
2019-02-11T13:25:16.633Z,49.67
2019-02-11T13:27:48.060Z,50.33
2019-02-11T13:30:25.735Z,48.33
2019-02-11T13:32:55.466Z,48.90
2019-02-11T13:35:25.269Z,50.53
2019-02-11T13:37:56.078Z,52.27
2019-02-11T13:40:26.485Z,49.87
2019-02-11T13:42:57.795Z,51.90
2019-02-11T13:45:27.739Z,50.73
2019-02-11T13:47:58.880Z,52.10
2019-02-11T13:50:29.430Z,50.37
2019-02-11T13:52:59.287Z,50.87
2019-02-11T13:55:31.152Z,50.17
2019-02-11T13:58:02.636Z,47.90
2019-02-11T14:00:33.201Z,48.83
2019-02-11T14:03:09.254Z,52.83
2019-02-11T14:05:39.214Z,50.60
2019-02-11T14:08:08.913Z,51.67
2019-02-11T14:10:38.599Z,48.47
2019-02-11T14:13:08.340Z,48.93
2019-02-11T14:15:38.406Z,49.07
2019-02-11T14:18:15.109Z,50.33
2019-02-11T14:20:44.106Z,49.23
2019-02-11T14:23:13.826Z,48.17
2019-02-11T14:25:46.279Z,48.67
2019-02-11T14:28:16.056Z,49.50
2019-02-11T14:30:45.739Z,49.50
2019-02-11T14:33:16.515Z,47.83
2019-02-11T14:35:46.208Z,48.23
2019-02-11T14:38:15.878Z,49.90
2019-02-11T14:40:46.589Z,48.50
2019-02-11T14:43:16.257Z,48.60
2019-02-11T14:45:45.912Z,50.03
2019-02-11T14:48:26.566Z,51.27
2019-02-11T14:50:47.113Z,48.50
2019-02-11T14:53:18.879Z,50.37
2019-02-11T14:55:48.644Z,48.93
2019-02-11T14:58:19.962Z,49.73
2019-02-11T15:00:51.433Z,48.60
2019-02-11T15:03:22.276Z,47.83
2019-02-11T15:05:51.970Z,48.13
2019-02-11T15:08:21.706Z,50.90
2019-02-11T15:10:51.400Z,47.60
2019-02-11T15:13:22.035Z,50.23
2019-02-11T15:15:51.889Z,49.83
2019-02-11T15:18:21.575Z,48.47
2019-02-11T15:20:51.266Z,48.23
2019-02-11T15:23:21.873Z,48.10
2019-02-11T15:25:52.142Z,48.90
2019-02-11T15:28:22.930Z,48.27
2019-02-11T15:30:52.608Z,48.83
2019-02-11T15:33:22.387Z,51.83
2019-02-11T15:35:54.378Z,50.77
2019-02-11T15:38:24.117Z,51.17
2019-02-11T15:40:53.850Z,52.87
2019-02-11T15:43:23.531Z,54.40
2019-02-11T15:45:53.230Z,55.07
2019-02-11T15:48:23.992Z,57.50
2019-02-11T15:50:54.801Z,57.33
2019-02-11T15:53:24.470Z,58.07
2019-02-11T15:55:54.177Z,59.73
2019-02-11T15:58:23.889Z,58.03
2019-02-11T16:00:55.287Z,60.47
2019-02-11T16:03:26.539Z,60.00
2019-02-11T16:06:06.489Z,60.33
2019-02-11T16:08:31.884Z,60.17
2019-02-11T16:11:02.240Z,61.53
2019-02-11T16:13:31.909Z,63.13
2019-02-11T16:16:02.126Z,61.37
2019-02-11T16:18:31.796Z,62.13
2019-02-11T16:21:02.849Z,61.07
2019-02-11T16:23:33.775Z,59.77
2019-02-11T16:26:03.668Z,58.37
2019-02-11T16:28:33.414Z,57.30
2019-02-11T16:31:04.254Z,59.07
2019-02-11T16:33:33.984Z,58.93
2019-02-11T16:36:03.746Z,56.93
2019-02-11T16:38:33.782Z,57.23
2019-02-11T16:41:04.254Z,58.73
2019-02-11T16:43:33.931Z,59.47
2019-02-11T16:46:11.276Z,58.27
2019-02-11T16:48:43.467Z,58.63
2019-02-11T16:51:15.630Z,58.57
2019-02-11T16:53:46.477Z,54.67
2019-02-11T16:56:16.113Z,52.07
2019-02-11T16:58:45.813Z,55.83
2019-02-11T17:01:15.543Z,54.30
2019-02-11T17:03:45.230Z,54.27
2019-02-11T17:06:15.241Z,56.13
2019-02-11T17:08:44.884Z,55.27
2019-02-11T17:11:14.592Z,54.07
2019-02-11T17:13:44.291Z,54.80
2019-02-11T17:16:16.114Z,50.83
2019-02-11T17:18:46.979Z,55.43
2019-02-11T17:21:16.631Z,51.40
2019-02-11T17:23:46.308Z,49.07
2019-02-11T17:26:15.994Z,53.23
2019-02-11T17:28:45.937Z,51.23
2019-02-11T17:31:15.718Z,49.20
2019-02-11T17:33:45.482Z,51.30
2019-02-11T17:36:15.186Z,48.93
2019-02-11T17:38:44.872Z,50.67
2019-02-11T17:41:14.604Z,48.57
2019-02-11T17:43:48.074Z,50.07
2019-02-11T17:46:17.732Z,49.03
2019-02-11T17:48:47.402Z,50.67
2019-02-11T17:51:36.441Z,51.40
2019-02-11T17:54:06.193Z,49.87
2019-02-11T17:56:35.906Z,50.23
2019-02-11T17:59:05.704Z,49.93
2019-02-11T18:01:35.448Z,53.20
2019-02-11T18:04:05.127Z,50.77
2019-02-11T18:06:34.853Z,53.63
2019-02-11T18:09:05.847Z,54.23
2019-02-11T18:11:35.535Z,53.33
2019-02-11T18:14:05.526Z,60.63
2019-02-11T18:16:35.278Z,113.60
2019-02-11T18:19:04.958Z,150.73
2019-02-11T18:21:34.655Z,84.47
2019-02-11T18:24:04.533Z,156.43
2019-02-11T18:26:53.504Z,262.57
2019-02-11T18:29:36.110Z,151.03
2019-02-11T18:32:05.870Z,146.77
2019-02-11T18:34:35.563Z,119.67
2019-02-11T18:37:05.305Z,89.33
2019-02-11T18:39:35.061Z,68.33
2019-02-11T18:42:04.758Z,63.13
2019-02-11T18:44:35.606Z,60.27
2019-02-11T18:47:07.688Z,60.07
2019-02-11T18:49:37.482Z,112.40
2019-02-11T18:52:07.222Z,81.97
2019-02-11T18:54:36.903Z,86.97
2019-02-11T18:57:25.859Z,92.27
2019-02-11T18:59:55.535Z,100.37
2019-02-11T19:02:26.671Z,85.40
2019-02-11T19:04:56.423Z,70.77
2019-02-11T19:07:27.630Z,63.17
2019-02-11T19:09:57.456Z,60.93
2019-02-11T19:12:27.132Z,58.90
2019-02-11T19:14:56.804Z,59.57
2019-02-11T19:17:30.335Z,57.43
2019-02-11T19:20:01.344Z,56.50
2019-02-11T19:22:31.061Z,60.03
2019-02-11T19:25:05.054Z,52.97
2019-02-11T19:27:35.807Z,59.67
2019-02-11T19:30:13.348Z,55.13
2019-02-11T19:32:51.047Z,55.87
2019-02-11T19:35:21.866Z,57.00
2019-02-11T19:37:56.967Z,58.77
2019-02-11T19:40:28.750Z,59.23
2019-02-11T19:42:59.266Z,63.80
2019-02-11T19:45:29.517Z,63.27
2019-02-11T19:48:00.422Z,66.03
2019-02-11T19:50:32.788Z,59.60
2019-02-11T19:53:03.801Z,60.27
2019-02-11T19:55:34.081Z,61.03
2019-02-11T19:58:04.579Z,60.90
2019-02-11T20:00:35.406Z,59.00
2019-02-11T20:03:06.720Z,54.03
2019-02-11T20:05:37.555Z,58.20
2019-02-11T20:08:10.078Z,54.90
2019-02-11T20:10:44.166Z,56.77
2019-02-11T20:13:14.688Z,56.13
2019-02-11T20:15:45.956Z,56.50
2019-02-11T20:18:20.320Z,59.47
2019-02-11T20:20:51.107Z,56.00
2019-02-11T20:23:21.518Z,55.73
2019-02-11T20:25:53.375Z,56.13
2019-02-11T20:28:24.794Z,54.97
2019-02-11T20:30:56.838Z,54.50
2019-02-11T20:33:27.575Z,59.83
2019-02-11T20:35:57.998Z,58.40
2019-02-11T20:38:30.703Z,61.73
2019-02-11T20:41:02.639Z,61.03
2019-02-11T20:43:33.909Z,55.97
2019-02-11T20:46:04.724Z,54.67
2019-02-11T20:48:35.255Z,54.90
2019-02-11T20:51:05.986Z,53.67
2019-02-11T20:53:38.417Z,55.20
2019-02-11T20:56:10.172Z,54.87
2019-02-11T20:58:39.848Z,58.60
2019-02-11T21:01:09.821Z,57.47
2019-02-11T21:03:39.485Z,53.87
2019-02-11T21:06:10.157Z,57.20
2019-02-11T21:08:39.962Z,57.30
2019-02-11T21:11:09.624Z,55.03
2019-02-11T21:13:39.201Z,56.77
2019-02-11T21:16:10.526Z,55.80
2019-02-11T21:18:40.291Z,55.87
2019-02-11T21:21:09.991Z,57.30
2019-02-11T21:23:39.642Z,55.00
2019-02-11T21:26:09.317Z,51.40
2019-02-11T21:28:39.008Z,53.00
2019-02-11T21:31:08.667Z,55.20
2019-02-11T21:33:38.324Z,50.43
2019-02-11T21:36:08.000Z,52.87
2019-02-11T21:38:37.674Z,53.47
2019-02-11T21:41:07.154Z,55.00
2019-02-11T21:43:36.840Z,55.73
2019-02-11T21:46:07.181Z,55.37
2019-02-11T21:48:36.905Z,57.00
2019-02-11T21:51:06.617Z,60.50
2019-02-11T21:53:37.746Z,59.80
2019-02-11T21:56:07.420Z,57.23
2019-02-11T21:58:37.132Z,57.40
2019-02-11T22:01:06.802Z,58.83
2019-02-11T22:03:36.608Z,60.17
2019-02-11T22:06:06.342Z,57.33
2019-02-11T22:08:35.977Z,52.90
2019-02-11T22:11:07.515Z,53.23
2019-02-11T22:13:37.197Z,55.80
2019-02-11T22:16:06.878Z,56.77
2019-02-11T22:18:36.532Z,55.23
2019-02-11T22:21:06.412Z,55.30
2019-02-11T22:23:38.310Z,53.30
2019-02-11T22:26:07.973Z,53.53
2019-02-11T22:28:37.739Z,58.30
2019-02-11T22:31:07.494Z,56.43
2019-02-11T22:33:37.151Z,54.90
2019-02-11T22:36:06.867Z,54.80
2019-02-11T22:38:36.524Z,52.03
2019-02-11T22:41:06.200Z,52.27
2019-02-11T22:43:35.886Z,52.70
2019-02-11T22:46:05.642Z,53.60
2019-02-11T22:48:35.322Z,54.00
2019-02-11T22:51:05.020Z,52.93
2019-02-11T22:53:34.690Z,59.23
2019-02-11T22:56:04.370Z,54.57
2019-02-11T22:58:34.058Z,53.67
2019-02-11T23:01:04.899Z,53.13
2019-02-11T23:03:36.072Z,53.10
2019-02-11T23:06:06.133Z,52.20
2019-02-11T23:08:35.813Z,52.00
2019-02-11T23:11:05.830Z,52.57
2019-02-11T23:13:37.181Z,48.20
2019-02-11T23:16:06.883Z,52.40
2019-02-11T23:18:36.544Z,48.47
2019-02-11T23:21:06.904Z,48.27
2019-02-11T23:23:36.554Z,49.03
2019-02-11T23:26:06.240Z,53.37
2019-02-11T23:28:37.404Z,47.97
2019-02-11T23:31:08.931Z,47.90
2019-02-11T23:33:38.604Z,51.33
2019-02-11T23:36:08.297Z,47.23
2019-02-11T23:38:37.978Z,48.23
2019-02-11T23:41:11.584Z,47.90
2019-02-11T23:43:44.058Z,49.67
2019-02-11T23:46:13.713Z,46.13
2019-02-11T23:48:43.383Z,46.47
2019-02-11T23:51:13.151Z,49.40
2019-02-11T23:53:42.829Z,49.50
2019-02-11T23:56:12.591Z,45.17
2019-02-11T23:58:42.281Z,47.53
